Time;durP1;ratioP1;P1;durP2;ratioP2;P2;SDS_P1;SDS_P2;PMS_P1;PMS_P2;Temp;Humidity;BMP_temperature;BMP_pressure;BME280_temperature;BME280_humidity;BME280_pressure;Samples;Min_cycle;Max_cycle;Signal;HPM_P1;HPM_P2
2023/10/05 00:02:08;;;;;;;4.97;4.27;;;19.30;67.70;20.20;101519.00;;;;4993328;28;20217;-48
2023/10/05 00:04:40;;;;;;;5.50;4.33;;;19.30;67.80;20.20;101592.00;;;;5009420;28;20207;-47
2023/10/05 00:07:11;;;;;;;4.80;4.30;;;19.20;67.60;20.10;101583.00;;;;5012296;28;20196;-56
2023/10/05 00:09:40;;;;;;;5.17;4.17;;;19.30;67.80;20.10;101591.00;;;;5017012;28;20276;-54
2023/10/05 00:12:08;;;;;;;4.83;3.93;;;19.20;68.50;20.10;101595.00;;;;5005119;28;20186;-55
2023/10/05 00:14:38;;;;;;;4.93;4.10;;;19.30;67.90;20.10;101513.00;;;;5008805;28;20207;-55
2023/10/05 00:17:07;;;;;;;5.47;4.60;;;19.20;67.90;20.10;101589.00;;;;5009954;28;20198;-56
2023/10/05 00:19:37;;;;;;;5.13;4.30;;;19.20;67.90;20.10;101585.00;;;;5009025;28;20195;-55
2023/10/05 00:22:04;;;;;;;5.40;4.30;;;19.20;67.80;20.10;101598.00;;;;5007967;28;20567;-55
2023/10/05 00:24:34;;;;;;;5.23;4.27;;;19.30;67.90;20.10;101603.00;;;;5009086;28;20860;-55
2023/10/05 00:27:00;;;;;;;4.53;4.07;;;19.20;67.90;20.10;101615.00;;;;5009176;28;20729;-55
2023/10/05 00:29:34;;;;;;;4.60;3.77;;;19.30;68.00;20.10;101591.00;;;;4991650;28;20188;-55
2023/10/05 00:32:00;;;;;;;4.57;3.93;;;19.20;68.00;20.10;101599.00;;;;5009166;28;20230;-56
2023/10/05 00:34:30;;;;;;;5.00;4.00;;;19.20;68.00;20.10;101595.00;;;;5009010;28;20222;-55
2023/10/05 00:36:58;;;;;;;4.83;4.30;;;19.20;68.30;20.10;101587.00;;;;5008731;28;20198;-55
2023/10/05 00:39:24;;;;;;;5.00;4.07;;;19.20;67.90;20.10;101589.00;;;;5008677;28;20190;-56
2023/10/05 00:44:30;;;;;;;4.73;3.93;;;19.20;67.90;20.00;101590.00;;;;5007789;28;20214;-56
2023/10/05 00:46:59;;;;;;;4.87;4.13;;;19.20;68.20;20.00;101600.00;;;;5008683;28;20203;-54
2023/10/05 00:49:30;;;;;;;4.30;3.90;;;19.20;68.20;20.00;101587.00;;;;5008815;28;20248;-54
2023/10/05 00:52:15;;;;;;;4.47;4.00;;;19.20;68.20;20.00;101585.00;;;;5007311;28;20188;-55
2023/10/05 00:54:51;;;;;;;6.33;3.93;;;19.20;68.30;20.00;101584.00;;;;5007890;28;20207;-55
2023/10/05 00:57:24;;;;;;;4.63;3.93;;;19.20;68.40;20.00;101597.00;;;;5008533;28;20179;-55
2023/10/05 01:00:15;;;;;;;4.47;3.90;;;19.20;68.40;20.00;101587.00;;;;5008967;28;20669;-47
2023/10/05 01:05:47;;;;;;;4.47;3.97;;;19.10;68.40;20.00;101593.00;;;;4988936;28;20196;-48
2023/10/05 01:08:15;;;;;;;4.60;3.90;;;19.10;68.40;19.90;101592.00;;;;5008473;28;20216;-47
2023/10/05 01:10:47;;;;;;;5.97;3.87;;;19.10;68.40;20.00;101596.00;;;;5007136;28;20207;-48
2023/10/05 01:13:31;;;;;;;4.83;3.77;;;19.10;68.40;20.00;101592.00;;;;5008323;28;20214;-48
2023/10/05 01:16:15;;;;;;;4.53;3.60;;;19.10;68.40;19.90;101587.00;;;;5008068;28;20561;-48
2023/10/05 01:18:41;;;;;;;5.10;3.90;;;19.10;68.40;19.90;101591.00;;;;5008237;28;20291;-47
2023/10/05 01:21:08;;;;;;;4.70;4.00;;;19.10;68.40;19.90;101588.00;;;;5007189;28;20251;-47
2023/10/05 01:23:41;;;;;;;4.33;3.70;;;19.10;68.50;19.90;101575.00;;;;5008164;28;20662;-46
2023/10/05 01:26:13;;;;;;;4.47;4.00;;;19.10;68.50;19.90;101582.00;;;;5008307;28;20188;-48
2023/10/05 01:28:41;;;;;;;3.97;3.43;;;19.10;68.50;19.90;101588.00;;;;5007927;28;20234;-48
2023/10/05 01:31:16;;;;;;;4.07;3.60;;;19.00;68.30;19.90;101585.00;;;;5008249;28;20589;-47
2023/10/05 01:33:46;;;;;;;4.17;3.70;;;19.00;68.30;19.90;101597.00;;;;5007230;28;20628;-48
2023/10/05 01:36:15;;;;;;;4.70;3.70;;;19.00;68.30;19.90;101578.00;;;;5008272;28;20703;-48
2023/10/05 01:38:41;;;;;;;4.97;4.00;;;19.10;68.50;19.90;101589.00;;;;5008340;28;20233;-48
2023/10/05 01:41:09;;;;;;;4.30;3.80;;;19.00;68.30;19.90;101590.00;;;;5008247;28;20193;-48
2023/10/05 01:43:35;;;;;;;4.30;3.50;;;19.00;68.40;19.80;101599.00;;;;5008777;28;20215;-48
2023/10/05 01:46:02;;;;;;;4.20;3.80;;;19.10;68.40;19.80;101591.00;;;;5008577;28;20187;-48
2023/10/05 01:48:30;;;;;;;5.30;3.97;;;19.10;68.40;19.80;101593.00;;;;5010648;28;20223;-48
2023/10/05 01:51:07;;;;;;;4.30;3.90;;;19.00;68.30;19.80;101587.00;;;;5022584;28;20176;-48
2023/10/05 01:53:33;;;;;;;4.77;3.87;;;19.00;68.40;19.80;101588.00;;;;5009360;28;20777;-48
2023/10/05 01:56:00;;;;;;;3.87;3.47;;;19.00;68.40;19.90;101595.00;;;;5008663;28;20187;-48
2023/10/05 01:58:27;;;;;;;4.60;3.80;;;19.00;68.30;19.90;101596.00;;;;5009551;28;20722;-47
2023/10/05 02:00:56;;;;;;;4.17;3.70;;;19.00;68.30;19.90;101586.00;;;;5008761;28;20192;-48
2023/10/05 02:03:23;;;;;;;4.27;3.77;;;19.10;68.40;19.90;101588.00;;;;5021504;28;20219;-48
2023/10/05 02:05:51;;;;;;;4.47;3.50;;;19.00;68.30;19.90;101590.00;;;;5022584;28;20188;-48
2023/10/05 02:08:20;;;;;;;4.30;3.80;;;19.10;68.40;19.90;101571.00;;;;5011844;28;20235;-47
2023/10/05 02:10:47;;;;;;;4.23;3.70;;;19.00;68.30;19.90;101591.00;;;;5011565;28;20186;-47
2023/10/05 02:13:13;;;;;;;4.50;3.60;;;19.00;68.30;19.90;101591.00;;;;5011587;28;20227;-49
2023/10/05 02:15:42;;;;;;;4.67;3.77;;;19.00;68.40;19.80;101588.00;;;;5011662;28;20180;-48
2023/10/05 02:18:22;;;;;;;4.40;3.87;;;19.00;68.40;19.80;101591.00;;;;5011093;28;20180;-47
2023/10/05 02:20:51;;;;;;;3.60;3.27;;;19.00;68.30;19.80;101581.00;;;;5011284;28;20176;-47
2023/10/05 02:23:25;;;;;;;4.30;3.50;;;19.00;68.30;19.80;101579.00;;;;5011295;28;20320;-52
2023/10/05 02:26:00;;;;;;;4.23;3.43;;;19.00;68.30;19.80;101581.00;;;;5011332;28;20186;-47
2023/10/05 02:28:25;;;;;;;3.97;3.30;;;19.00;68.40;19.80;101572.00;;;;5010998;28;20198;-47
2023/10/05 02:30:59;;;;;;;3.80;3.40;;;19.00;68.40;19.80;101568.00;;;;5009934;28;20557;-47
2023/10/05 02:33:27;;;;;;;3.73;3.43;;;19.00;68.40;19.80;101576.00;;;;5011316;28;20210;-47
2023/10/05 02:35:56;;;;;;;4.53;3.70;;;19.00;68.40;19.80;101566.00;;;;5011214;28;20204;-48
2023/10/05 02:38:23;;;;;;;3.90;3.50;;;19.00;68.40;19.80;101573.00;;;;5011114;28;20186;-48
2023/10/05 02:40:54;;;;;;;3.87;3.43;;;19.00;68.40;19.80;101568.00;;;;5010900;28;20184;-48
2023/10/05 02:43:29;;;;;;;6.87;3.70;;;19.00;68.40;19.80;101568.00;;;;5011167;28;20203;-48
2023/10/05 02:45:59;;;;;;;3.47;3.17;;;19.00;68.40;19.80;101560.00;;;;5009967;28;20183;-48
2023/10/05 02:48:25;;;;;;;4.27;3.40;;;19.00;68.50;19.80;101563.00;;;;5010945;28;20551;-48
2023/10/05 02:50:52;;;;;;;3.83;3.43;;;19.00;68.50;19.80;101558.00;;;;5011260;28;20186;-48
2023/10/05 02:53:22;;;;;;;3.77;3.17;;;19.00;68.50;19.80;101558.00;;;;5011094;28;20204;-48
2023/10/05 02:55:51;;;;;;;3.50;3.20;;;18.90;68.40;19.80;101553.00;;;;5009464;28;20212;-46
2023/10/05 02:58:17;;;;;;;3.67;3.37;;;18.90;68.40;19.80;101542.00;;;;5010761;28;20179;-48
2023/10/05 03:00:44;;;;;;;3.43;3.10;;;18.90;68.50;19.80;101558.00;;;;5010975;28;20211;-48
2023/10/05 03:03:14;;;;;;;3.83;3.20;;;19.00;68.60;19.80;101550.00;;;;5012138;28;20306;-48
2023/10/05 03:05:41;;;;;;;4.10;3.53;;;18.90;68.60;19.80;101551.00;;;;5011620;28;20176;-48
2023/10/05 03:08:10;;;;;;;4.37;3.33;;;19.00;68.80;19.80;101556.00;;;;5011845;28;20561;-48
2023/10/05 03:10:37;;;;;;;3.80;3.40;;;18.90;68.60;19.80;101565.00;;;;5011931;28;20238;-47
2023/10/05 03:13:04;;;;;;;3.53;3.23;;;18.90;68.60;19.80;101560.00;;;;5003640;28;20222;-48
2023/10/05 03:15:30;;;;;;;3.43;3.10;;;18.90;68.60;19.80;101560.00;;;;5007579;28;20191;-47
2023/10/05 03:17:57;;;;;;;5.10;3.60;;;18.90;68.60;19.80;101568.00;;;;5011596;28;20195;-47
2023/10/05 03:20:24;;;;;;;4.13;3.07;;;18.90;68.60;19.80;101559.00;;;;5011498;28;20188;-48
2023/10/05 03:22:54;;;;;;;3.97;3.40;;;18.90;68.60;19.80;101555.00;;;;5011499;28;20234;-47
2023/10/05 03:25:21;;;;;;;3.43;3.10;;;18.90;68.60;19.80;101556.00;;;;5011876;28;20187;-48
2023/10/05 03:27:48;;;;;;;5.17;3.17;;;18.90;68.60;19.80;101557.00;;;;5010137;28;20279;-48
2023/10/05 03:30:15;;;;;;;6.80;3.70;;;18.90;68.70;19.80;101556.00;;;;5011357;28;20199;-48
2023/10/05 03:32:41;;;;;;;4.30;3.40;;;18.90;68.90;19.70;101551.00;;;;5011417;28;20184;-48
2023/10/05 03:35:11;;;;;;;6.40;3.43;;;18.90;68.90;19.70;101548.00;;;;5014168;28;20180;-48
2023/10/05 03:37:41;;;;;;;7.43;3.70;;;18.90;69.00;19.70;101551.00;;;;5001340;28;20222;-49
2023/10/05 03:40:19;;;;;;;22.07;3.50;;;18.90;68.80;19.70;101546.00;;;;4995576;28;20179;-48
2023/10/05 03:42:46;;;;;;;6.70;3.57;;;18.90;68.80;19.70;101544.00;;;;5010978;28;20221;-47
2023/10/05 03:45:16;;;;;;;5.10;3.50;;;18.90;68.70;19.70;101547.00;;;;5019752;28;20204;-47
2023/10/05 03:47:42;;;;;;;5.47;3.20;;;18.90;68.70;19.70;101544.00;;;;5016530;28;20204;-49
2023/10/05 03:50:08;;;;;;;4.67;3.13;;;18.90;68.70;19.70;101553.00;;;;4978667;28;20183;-48
2023/10/05 03:52:34;;;;;;;11.13;3.83;;;18.80;68.60;19.70;101554.00;;;;5012619;28;20183;-48
2023/10/05 03:55:10;;;;;;;4.80;3.33;;;18.90;68.70;19.60;101532.00;;;;5011787;28;20717;-47
2023/10/05 03:57:41;;;;;;;5.50;3.40;;;18.90;68.60;19.60;101552.00;;;;5009712;28;20179;-47
2023/10/05 04:00:48;;;;;;;3.43;3.10;;;18.90;68.60;19.60;101548.00;;;;5024059;28;20207;-47
2023/10/05 04:03:02;;;;;;;4.50;3.37;;;18.80;68.50;19.60;101558.00;;;;5009432;28;20224;-48
2023/10/05 04:05:28;;;;;;;4.17;3.17;;;18.80;68.60;19.60;101565.00;;;;5011383;28;20191;-55
2023/10/05 04:08:10;;;;;;;4.10;3.37;;;18.90;68.60;19.60;101566.00;;;;5009727;28;20684;-55
2023/10/05 04:10:49;;;;;;;4.27;3.23;;;18.80;68.50;19.60;101561.00;;;;5007381;28;20180;-54
2023/10/05 04:13:21;;;;;;;4.03;3.40;;;18.80;68.50;19.60;101556.00;;;;4994478;28;20369;-55
2023/10/05 04:15:47;;;;;;;4.97;3.40;;;18.80;68.40;19.60;101562.00;;;;5005488;28;20172;-54
2023/10/05 04:18:15;;;;;;;5.80;3.13;;;18.80;68.50;19.60;101556.00;;;;5009895;28;20697;-54
2023/10/05 04:20:43;;;;;;;6.97;3.63;;;18.80;68.60;19.60;101550.00;;;;5010017;28;20250;-55
2023/10/05 04:23:14;;;;;;;6.63;3.40;;;18.80;68.60;19.60;101550.00;;;;5009974;28;20210;-55
2023/10/05 04:25:40;;;;;;;7.67;3.30;;;18.80;68.80;19.60;101547.00;;;;5008998;28;20183;-55
2023/10/05 04:28:06;;;;;;;3.70;3.03;;;18.80;68.80;19.50;101544.00;;;;5009429;28;20554;-54
2023/10/05 04:30:33;;;;;;;5.97;3.20;;;18.80;68.80;19.60;101559.00;;;;4991916;28;20179;-55
2023/10/05 04:32:59;;;;;;;10.60;3.30;;;18.70;68.80;19.50;101550.00;;;;5009554;28;20267;-55
2023/10/05 04:35:28;;;;;;;8.93;3.93;;;18.70;68.80;19.50;101557.00;;;;5010038;28;20183;-56
2023/10/05 04:37:54;;;;;;;10.67;3.80;;;18.70;68.80;19.60;101561.00;;;;5009740;28;20187;-55
2023/10/05 04:40:24;;;;;;;10.27;3.70;;;18.70;68.80;19.50;101558.00;;;;5008497;28;20674;-54
2023/10/05 04:42:51;;;;;;;9.00;3.83;;;18.70;69.00;19.50;101546.00;;;;5009665;28;20180;-55
2023/10/05 04:45:17;;;;;;;8.17;3.70;;;18.70;69.10;19.50;101552.00;;;;5009443;28;20199;-55
2023/10/05 04:47:46;;;;;;;10.47;3.77;;;18.70;69.20;19.50;101553.00;;;;5009241;28;20211;-55
2023/10/05 04:50:15;;;;;;;7.00;3.50;;;18.70;69.30;19.50;101554.00;;;;5008439;28;20658;-54
2023/10/05 04:52:41;;;;;;;7.97;3.53;;;18.70;69.30;19.50;101552.00;;;;5009390;28;20640;-55
2023/10/05 04:55:22;;;;;;;8.67;3.63;;;18.70;69.40;19.50;101551.00;;;;5009052;28;20206;-56
2023/10/05 04:57:55;;;;;;;4.50;3.50;;;18.70;69.40;19.50;101549.00;;;;5009245;28;20195;-55
2023/10/05 05:06:10;;;;;;;7.80;3.53;;;18.70;69.30;19.50;101547.00;;;;5008841;28;20263;-55
2023/10/05 05:08:39;;;;;;;8.60;3.90;;;18.70;69.40;19.50;101560.00;;;;5008850;28;20253;-54
2023/10/05 05:11:11;;;;;;;8.23;3.53;;;18.70;69.40;19.50;101549.00;;;;5008145;28;20533;-55
2023/10/05 05:13:41;;;;;;;7.87;3.43;;;18.70;69.40;19.50;101546.00;;;;5003366;28;20662;-55
2023/10/05 05:16:08;;;;;;;6.47;3.60;;;18.70;69.40;19.50;101555.00;;;;4991739;28;20203;-54
2023/10/05 05:18:37;;;;;;;8.77;3.40;;;18.70;69.40;19.50;101544.00;;;;5008549;28;20192;-55
2023/10/05 05:21:07;;;;;;;8.70;3.70;;;18.70;69.40;19.50;101539.00;;;;5008750;28;20262;-55
2023/10/05 05:23:34;;;;;;;7.27;3.57;;;18.70;69.40;19.50;101528.00;;;;5007425;28;20199;-55
2023/10/05 05:26:00;;;;;;;7.43;3.70;;;18.70;69.40;19.50;101540.00;;;;5008600;28;20191;-55
2023/10/05 05:28:26;;;;;;;8.70;3.70;;;18.70;69.30;19.50;101530.00;;;;5008862;28;20203;-55
2023/10/05 05:30:53;;;;;;;8.27;3.73;;;18.60;69.20;19.50;101530.00;;;;5007218;28;20180;-55
2023/10/05 05:33:19;;;;;;;10.83;3.70;;;18.60;69.10;19.50;101538.00;;;;5007331;28;20206;-55
2023/10/05 05:35:46;;;;;;;5.73;3.20;;;18.60;69.10;19.50;101536.00;;;;5007413;28;20183;-55
2023/10/05 05:38:11;;;;;;;6.37;3.40;;;18.60;69.10;19.40;101533.00;;;;5012865;28;20230;-55
2023/10/05 05:40:38;;;;;;;4.77;3.17;;;18.60;69.10;19.40;101507.00;;;;5013238;28;20600;-55
2023/10/05 05:43:08;;;;;;;4.07;3.00;;;18.60;69.10;19.40;101528.00;;;;5020566;28;20233;-54
2023/10/05 05:45:34;;;;;;;6.67;3.30;;;18.60;69.10;19.50;101526.00;;;;5012432;28;20206;-54
2023/10/05 05:48:06;;;;;;;7.37;3.40;;;18.60;69.00;19.40;101534.00;;;;5012709;28;20195;-55
2023/10/05 05:50:38;;;;;;;4.33;3.17;;;18.60;69.10;19.40;101529.00;;;;5013970;28;20549;-55
2023/10/05 05:53:06;;;;;;;4.30;3.20;;;18.60;69.10;19.40;101518.00;;;;5013509;28;20231;-55
2023/10/05 05:55:32;;;;;;;3.87;3.07;;;18.60;69.10;19.40;101521.00;;;;5021173;28;20183;-56
2023/10/05 05:57:59;;;;;;;5.87;3.30;;;18.60;69.00;19.40;101523.00;;;;5019397;28;20617;-56
2023/10/05 06:00:28;;;;;;;5.00;3.30;;;18.60;69.10;19.40;101535.00;;;;5012735;28;20191;-55
2023/10/05 06:02:54;;;;;;;3.77;3.20;;;18.60;69.10;19.40;101531.00;;;;5012689;28;20196;-55
2023/10/05 06:05:22;;;;;;;3.87;3.17;;;18.60;69.10;19.40;101535.00;;;;5012500;28;20561;-55
2023/10/05 06:07:50;;;;;;;4.97;3.37;;;18.60;69.10;19.40;101545.00;;;;5012226;28;20226;-55
2023/10/05 06:10:16;;;;;;;6.30;3.23;;;18.60;69.10;19.40;101537.00;;;;5011753;28;20175;-55
2023/10/05 06:12:42;;;;;;;3.40;3.00;;;18.60;69.10;19.40;101550.00;;;;5012411;28;20214;-55
2023/10/05 06:15:15;;;;;;;4.93;3.30;;;18.60;69.10;19.40;101549.00;;;;5011814;28;20242;-55
2023/10/05 06:17:41;;;;;;;4.47;3.00;;;18.60;69.10;19.40;101560.00;;;;5012225;28;20210;-55
2023/10/05 06:20:14;;;;;;;4.17;3.07;;;18.60;69.10;19.40;101557.00;;;;5011920;28;20670;-55
2023/10/05 06:22:44;;;;;;;3.27;2.73;;;18.60;69.10;19.40;101568.00;;;;5012371;28;20562;-55
2023/10/05 06:25:16;;;;;;;4.53;2.80;;;18.60;69.10;19.40;101579.00;;;;5010908;28;20237;-56
2023/10/05 06:27:49;;;;;;;6.37;3.17;;;18.60;69.10;19.30;101585.00;;;;5011714;28;20349;-55
2023/10/05 06:30:14;;;;;;;3.60;3.00;;;18.60;69.10;19.30;101586.00;;;;5012021;28;20626;-55
2023/10/05 06:32:43;;;;;;;6.03;3.30;;;18.50;69.00;19.30;101585.00;;;;5011939;28;20184;-56
2023/10/05 06:35:09;;;;;;;4.20;3.10;;;18.50;69.10;19.30;101589.00;;;;5011752;28;20191;-55
2023/10/05 06:37:38;;;;;;;3.80;3.00;;;18.50;69.00;19.30;101575.00;;;;5011856;28;20183;-55
2023/10/05 06:40:09;;;;;;;3.47;2.63;;;18.50;69.00;19.30;101580.00;;;;5011481;28;20591;-55
2023/10/05 06:42:37;;;;;;;4.90;3.10;;;18.50;69.00;19.30;101591.00;;;;5012052;28;20184;-55
2023/10/05 06:45:07;;;;;;;3.60;3.10;;;18.50;69.10;19.30;101591.00;;;;5011676;28;20215;-55
2023/10/05 06:47:37;;;;;;;4.40;3.10;;;18.50;69.10;19.30;101604.00;;;;5011581;28;20196;-55
2023/10/05 06:50:08;;;;;;;4.50;3.00;;;18.50;69.10;19.30;101598.00;;;;5010326;28;20187;-55
2023/10/05 06:52:49;;;;;;;3.93;3.10;;;18.50;69.10;19.30;101607.00;;;;5011689;28;20194;-56
2023/10/05 06:55:17;;;;;;;3.17;2.80;;;18.50;69.10;19.30;101609.00;;;;5011613;28;20206;-55
2023/10/05 06:57:43;;;;;;;4.50;3.17;;;18.50;69.10;19.30;101609.00;;;;5011824;28;20207;-56
2023/10/05 07:00:18;;;;;;;3.97;3.30;;;18.50;69.10;19.30;101609.00;;;;5013765;28;20186;-55
2023/10/05 07:02:53;;;;;;;4.20;2.73;;;18.50;69.40;19.30;101597.00;;;;5014820;28;20681;-54
2023/10/05 07:05:20;;;;;;;5.13;3.03;;;18.50;69.30;19.30;101598.00;;;;5010901;28;20190;-55
2023/10/05 07:07:45;;;;;;;7.37;3.03;;;18.50;69.20;19.30;101601.00;;;;5011227;28;20207;-55
2023/10/05 07:10:15;;;;;;;4.67;3.03;;;18.50;69.30;19.30;101594.00;;;;5011200;28;20271;-55
2023/10/05 07:12:48;;;;;;;4.30;3.00;;;18.40;69.20;19.00;101593.00;;;;5011350;28;20268;-56
2023/10/05 07:15:14;;;;;;;3.00;2.70;;;18.50;69.40;19.30;101591.00;;;;5010976;28;20205;-55
2023/10/05 07:17:41;;;;;;;5.70;3.27;;;18.50;69.60;19.30;101597.00;;;;5010065;28;20188;-54
2023/10/05 07:20:11;;;;;;;3.93;2.90;;;18.40;69.50;19.30;101603.00;;;;5010010;28;20218;-55
2023/10/05 07:22:45;;;;;;;4.20;3.10;;;18.40;69.60;19.30;101609.00;;;;5010399;28;20307;-55
2023/10/05 07:25:11;;;;;;;4.30;3.00;;;18.40;69.60;19.30;101601.00;;;;5013432;28;20187;-52
2023/10/05 07:27:38;;;;;;;4.53;2.83;;;18.40;69.60;19.20;101606.00;;;;5014154;28;20215;-52
2023/10/05 07:30:05;;;;;;;4.10;2.93;;;18.40;69.60;19.30;101616.00;;;;5011381;28;20241;-52
2023/10/05 07:32:31;;;;;;;5.53;3.13;;;18.40;69.60;19.20;101623.00;;;;5008250;28;20183;-53
2023/10/05 07:34:57;;;;;;;6.53;3.10;;;18.40;69.70;19.20;101630.00;;;;5009628;28;20222;-52
2023/10/05 07:37:23;;;;;;;4.13;3.10;;;18.40;69.80;19.20;101643.00;;;;5025045;28;20176;-52
2023/10/05 07:39:51;;;;;;;5.20;3.20;;;18.40;69.90;19.20;101643.00;;;;5017512;28;20182;-52
2023/10/05 07:42:17;;;;;;;3.20;2.87;;;18.40;69.80;19.20;101642.00;;;;5010921;28;20192;-52
2023/10/05 07:44:43;;;;;;;4.40;2.73;;;18.40;69.90;19.20;101645.00;;;;5010810;28;20734;-53
2023/10/05 07:47:11;;;;;;;3.67;2.90;;;18.40;70.00;19.20;101640.00;;;;5010959;28;20202;-53
2023/10/05 07:49:37;;;;;;;4.13;3.10;;;18.40;70.00;19.20;101652.00;;;;5011274;28;20639;-52
2023/10/05 07:52:07;;;;;;;3.77;2.70;;;18.40;70.70;19.20;101647.00;;;;5026044;28;20247;-54
2023/10/05 07:54:34;;;;;;;4.03;3.07;;;18.40;69.90;19.20;101656.00;;;;5009515;28;20210;-52
2023/10/05 07:57:01;;;;;;;4.30;2.90;;;18.40;70.00;19.20;101662.00;;;;5010005;28;20175;-53
2023/10/05 07:59:28;;;;;;;4.30;2.70;;;18.30;70.20;19.20;101666.00;;;;5008662;28;20812;-52
2023/10/05 08:01:55;;;;;;;3.03;2.73;;;18.40;70.30;19.20;101595.00;;;;5009375;28;20259;-51
2023/10/05 08:04:22;;;;;;;3.70;2.57;;;18.40;70.40;19.20;101676.00;;;;5009837;28;20710;-51
2023/10/05 08:06:48;;;;;;;5.50;2.87;;;18.40;70.30;19.20;101674.00;;;;5009928;28;20207;-52
2023/10/05 08:09:15;;;;;;;7.30;2.83;;;18.40;71.10;19.30;101677.00;;;;5009911;28;20580;-51
2023/10/05 08:11:44;;;;;;;9.27;3.03;;;18.40;70.60;19.30;101673.00;;;;5008112;28;20179;-51
2023/10/05 08:14:13;;;;;;;11.43;3.40;;;18.40;70.70;19.30;101683.00;;;;5009477;28;20282;-50
2023/10/05 08:16:39;;;;;;;9.10;3.43;;;18.40;71.10;19.30;101676.00;;;;5009600;28;20267;-50
2023/10/05 08:19:05;;;;;;;11.53;3.50;;;18.40;71.40;19.20;101674.00;;;;5008208;28;20214;-51
2023/10/05 08:21:41;;;;;;;9.97;3.60;;;18.40;71.50;19.20;101681.00;;;;5144151;27;20615;-52
2023/10/05 08:24:06;;;;;;;7.77;3.40;;;18.40;71.30;19.30;101677.00;;;;5114363;28;20212;-51
2023/10/05 08:26:32;;;;;;;6.53;3.10;;;18.40;71.60;19.30;101683.00;;;;5103721;28;20180;-50
2023/10/05 08:28:59;;;;;;;8.33;3.20;;;18.50;71.70;19.30;101683.00;;;;5105678;28;20606;-51
2023/10/05 08:31:25;;;;;;;5.53;3.20;;;18.50;71.80;19.30;101691.00;;;;5105780;28;20196;-50
2023/10/05 08:33:54;;;;;;;8.73;2.90;;;18.50;71.50;19.30;101681.00;;;;5105893;28;20220;-50
2023/10/05 08:36:23;;;;;;;9.33;3.30;;;18.40;71.50;19.30;101691.00;;;;5106083;28;20168;-52
2023/10/05 08:38:49;;;;;;;7.00;3.00;;;18.50;71.70;19.30;101692.00;;;;5105355;28;20643;-51
2023/10/05 08:41:31;;;;;;;7.67;3.20;;;18.40;71.60;19.30;101684.00;;;;5105957;28;20290;-50
2023/10/05 08:44:06;;;;;;;6.60;3.20;;;18.40;71.60;19.30;101690.00;;;;5104741;28;20211;-51
2023/10/05 08:46:36;;;;;;;6.60;2.80;;;18.40;71.40;19.30;101681.00;;;;5105980;28;20590;-50
2023/10/05 08:49:07;;;;;;;5.27;2.80;;;18.40;71.50;19.20;101680.00;;;;5105705;28;20180;-50
2023/10/05 08:51:35;;;;;;;4.90;2.83;;;18.40;71.40;19.30;101680.00;;;;5104311;28;20757;-51
2023/10/05 08:54:02;;;;;;;6.53;2.97;;;18.40;71.40;19.20;101679.00;;;;5101729;28;20192;-51
2023/10/05 08:56:31;;;;;;;7.83;3.00;;;18.40;71.50;19.20;101683.00;;;;5105712;28;20187;-51
2023/10/05 08:58:59;;;;;;;8.80;2.83;;;18.40;71.30;19.20;101683.00;;;;5103978;28;20211;-50
2023/10/05 09:01:29;;;;;;;6.90;2.93;;;18.40;71.30;19.20;101689.00;;;;5105399;28;20297;-51
2023/10/05 09:07:08;;;;;;;7.37;3.13;;;18.40;71.30;19.30;101699.00;;;;5105661;28;20216;-51
2023/10/05 09:09:56;;;;;;;5.07;2.87;;;18.40;71.30;19.20;101700.00;;;;5105154;28;20184;-51
2023/10/05 09:12:35;;;;;;;8.57;2.90;;;18.40;71.30;19.20;101696.00;;;;5093571;28;20203;-50
2023/10/05 09:15:22;;;;;;;7.83;2.87;;;18.40;71.30;19.20;101712.00;;;;5104652;28;20207;-50
2023/10/05 09:20:36;;;;;;;6.53;2.97;;;18.40;71.30;19.20;101719.00;;;;5104631;28;20211;-51
2023/10/05 09:23:06;;;;;;;7.57;2.90;;;18.40;71.20;19.20;101720.00;;;;5105399;28;20196;-51
2023/10/05 09:25:34;;;;;;;4.37;2.60;;;18.40;71.30;19.20;101721.00;;;;5098598;28;20177;-51
2023/10/05 09:28:09;;;;;;;6.07;3.03;;;18.40;71.20;19.20;101716.00;;;;5103447;28;20651;-51
2023/10/05 09:30:55;;;;;;;4.27;2.77;;;18.40;71.20;19.20;101723.00;;;;5104875;28;20188;-51
2023/10/05 09:33:26;;;;;;;7.10;2.60;;;18.40;71.20;19.20;101720.00;;;;5093932;28;20205;-51
2023/10/05 09:35:56;;;;;;;5.03;2.50;;;18.40;71.30;19.30;101725.00;;;;5093912;28;20210;-51
2023/10/05 09:38:23;;;;;;;3.97;2.70;;;18.40;71.20;19.30;101720.00;;;;5091501;28;20265;-51
2023/10/05 09:40:49;;;;;;;5.47;2.63;;;18.40;71.20;19.30;101726.00;;;;5090500;28;20193;-52
2023/10/05 09:43:18;;;;;;;5.40;2.60;;;18.40;71.10;19.30;101722.00;;;;5090227;28;20683;-52
2023/10/05 09:45:44;;;;;;;3.57;2.57;;;18.40;71.10;19.30;101733.00;;;;5071820;28;20188;-52
2023/10/05 09:48:10;;;;;;;3.87;2.77;;;18.40;71.00;19.30;101734.00;;;;5073125;28;20544;-51
2023/10/05 09:50:36;;;;;;;5.33;2.60;;;18.40;71.10;19.30;101723.00;;;;5071500;28;20185;-52
2023/10/05 09:53:06;;;;;;;4.67;2.47;;;18.40;71.10;19.30;101744.00;;;;5081296;28;20193;-51
2023/10/05 09:55:32;;;;;;;5.33;2.50;;;18.40;71.00;19.30;101733.00;;;;5091226;28;20183;-51
2023/10/05 09:58:05;;;;;;;3.33;2.60;;;18.40;71.00;19.30;101742.00;;;;5089882;28;20173;-51
2023/10/05 10:03:04;;;;;;;4.30;2.50;;;18.40;71.00;19.30;101746.00;;;;5091221;28;20204;-51
2023/10/05 10:05:42;;;;;;;5.23;2.40;;;18.40;71.00;19.30;101737.00;;;;5090346;28;20317;-51
2023/10/05 10:08:24;;;;;;;2.93;2.47;;;18.40;71.00;19.30;101746.00;;;;5089406;28;20684;-51
2023/10/05 10:11:19;;;;;;;2.87;2.50;;;18.40;71.00;19.30;101731.00;;;;5088651;28;20658;-51
2023/10/05 10:13:52;;;;;;;4.53;2.67;;;18.40;71.00;19.30;101747.00;;;;5084155;28;20193;-51
2023/10/05 10:16:22;;;;;;;4.47;2.60;;;18.40;70.90;19.30;101754.00;;;;5090486;28;20215;-51
2023/10/05 10:19:03;;;;;;;7.40;3.03;;;18.40;70.90;19.30;101743.00;;;;5090326;28;20185;-51
2023/10/05 10:21:41;;;;;;;5.07;2.40;;;18.40;71.30;19.30;101740.00;;;;5090544;28;20193;-52
2023/10/05 10:24:17;;;;;;;6.43;2.47;;;18.40;71.10;19.30;101747.00;;;;5090624;28;20205;-51
2023/10/05 10:27:08;;;;;;;14.00;3.17;;;18.40;71.20;19.30;101755.00;;;;5089232;28;20181;-51
2023/10/05 10:29:50;;;;;;;8.60;2.77;;;18.40;71.30;19.30;101755.00;;;;5089652;28;20184;-52
2023/10/05 10:32:22;;;;;;;8.33;2.77;;;18.40;71.50;19.30;101745.00;;;;5090862;28;20242;-52
2023/10/05 10:34:55;;;;;;;7.60;2.73;;;18.40;71.30;19.30;101724.00;;;;5090095;28;20200;-52
2023/10/05 10:37:49;;;;;;;9.00;2.57;;;18.40;71.30;19.30;101736.00;;;;5090615;28;20659;-51
2023/10/05 10:45:41;;;;;;;3.13;2.50;;;18.40;71.10;19.30;101739.00;;;;5090056;28;20628;-51
2023/10/05 10:48:29;;;;;;;3.57;2.43;;;18.40;71.20;19.30;101744.00;;;;5090519;28;20207;-51
2023/10/05 10:50:59;;;;;;;5.73;2.70;;;18.40;71.10;19.30;101742.00;;;;5090414;28;20234;-52
2023/10/05 10:53:30;;;;;;;5.73;2.60;;;18.40;71.20;19.30;101743.00;;;;5089215;28;20572;-52
2023/10/05 10:56:03;;;;;;;7.13;2.50;;;18.40;71.20;19.30;101732.00;;;;5089594;28;20181;-53
2023/10/05 10:58:31;;;;;;;2.40;2.13;;;18.40;71.20;19.30;101733.00;;;;5089977;28;20185;-52
2023/10/05 11:01:03;;;;;;;5.70;2.60;;;18.40;71.20;19.30;101727.00;;;;5089885;28;20204;-52
2023/10/05 11:03:30;;;;;;;4.80;2.60;;;18.40;71.10;19.30;101734.00;;;;5090178;28;20211;-52
2023/10/05 11:05:57;;;;;;;6.83;2.53;;;18.40;71.20;19.40;101727.00;;;;5089669;28;20187;-52
2023/10/05 11:08:24;;;;;;;7.57;2.50;;;18.40;71.10;19.40;101734.00;;;;5090019;28;20173;-53
2023/10/05 11:11:06;;;;;;;4.40;2.57;;;18.40;71.10;19.40;101730.00;;;;5089777;28;20780;-52
2023/10/05 11:13:33;;;;;;;4.50;2.20;;;18.40;71.10;19.40;101731.00;;;;5089725;28;20200;-52
2023/10/05 11:16:03;;;;;;;3.97;2.30;;;18.40;71.20;19.40;101729.00;;;;5089376;28;20180;-52
2023/10/05 11:18:34;;;;;;;3.43;2.23;;;18.40;71.20;19.40;101726.00;;;;5089446;28;20177;-52
2023/10/05 11:21:14;;;;;;;6.00;2.57;;;18.40;71.10;19.40;101725.00;;;;5088491;28;20657;-52
2023/10/05 11:23:57;;;;;;;5.50;2.70;;;18.40;71.10;19.40;101719.00;;;;5089870;28;20589;-52
2023/10/05 11:26:33;;;;;;;4.40;2.33;;;18.40;71.10;19.40;101723.00;;;;5088263;28;20189;-52